createdAt,value
2022-12-10T00:00:40.368Z,0.88
2022-12-10T00:04:47.803Z,0.86
2022-12-10T00:08:51.811Z,0.95
2022-12-10T00:12:53.784Z,0.95
2022-12-10T00:16:55.790Z,1.00
2022-12-10T00:20:57.858Z,0.99
2022-12-10T00:24:59.982Z,0.99
2022-12-10T00:29:04.299Z,0.92
2022-12-10T00:33:06.391Z,0.96
2022-12-10T00:37:08.434Z,0.97
2022-12-10T00:41:11.883Z,0.93
2022-12-10T00:45:13.867Z,1.02
2022-12-10T00:49:15.922Z,1.04
2022-12-10T00:53:17.924Z,1.00
2022-12-10T00:57:19.931Z,1.04
2022-12-10T01:01:26.189Z,0.99
2022-12-10T01:05:28.215Z,0.96
2022-12-10T01:09:31.391Z,0.93
2022-12-10T01:13:33.492Z,0.98
2022-12-10T01:17:35.581Z,0.99
2022-12-10T01:21:38.032Z,0.98
2022-12-10T01:25:40.021Z,0.96
2022-12-10T01:29:42.968Z,1.03
2022-12-10T01:33:46.148Z,1.04
2022-12-10T01:37:48.212Z,1.00
2022-12-10T01:41:51.984Z,0.91
2022-12-10T01:45:54.104Z,0.92
2022-12-10T01:49:58.454Z,0.99
2022-12-10T01:54:01.338Z,0.92
2022-12-10T01:58:03.644Z,0.86
2022-12-10T02:02:30.415Z,0.90
2022-12-10T02:06:43.312Z,0.97
2022-12-10T02:11:20.733Z,1.05
2022-12-10T02:15:31.398Z,1.12
2022-12-10T02:20:02.903Z,1.15
2022-12-10T02:24:12.441Z,1.14
2022-12-10T02:28:38.125Z,1.13
2022-12-10T02:32:45.383Z,1.11
2022-12-10T02:36:53.177Z,1.14
2022-12-10T02:41:02.425Z,1.17
2022-12-10T02:45:06.235Z,1.22
2022-12-10T02:49:12.680Z,1.24
2022-12-10T02:53:14.895Z,1.29
2022-12-10T02:57:36.322Z,1.27
2022-12-10T03:01:56.149Z,1.24
2022-12-10T03:06:31.179Z,1.30
2022-12-10T03:11:06.619Z,1.21
2022-12-10T03:15:11.592Z,1.18
2022-12-10T03:19:19.861Z,1.21
2022-12-10T03:23:22.441Z,1.17
2022-12-10T03:27:25.117Z,1.18
2022-12-10T03:31:27.538Z,1.19
2022-12-10T03:35:30.082Z,1.19
2022-12-10T03:39:33.228Z,1.12
2022-12-10T03:43:35.336Z,1.14
2022-12-10T03:47:37.411Z,1.19
2022-12-10T03:51:39.397Z,1.27
2022-12-10T03:55:41.372Z,1.36
2022-12-10T03:59:43.392Z,1.37
2022-12-10T04:03:45.670Z,1.37
2022-12-10T04:07:48.027Z,1.38
2022-12-10T04:11:50.082Z,1.37
2022-12-10T04:16:10.841Z,1.39
2022-12-10T04:20:31.169Z,1.39
2022-12-10T04:24:54.017Z,1.38
2022-12-10T04:28:56.046Z,1.34
2022-12-10T04:32:58.177Z,1.36
2022-12-10T04:37:01.507Z,1.34
2022-12-10T04:41:03.507Z,1.34
2022-12-10T04:45:06.131Z,1.36
2022-12-10T04:49:08.918Z,1.42
2022-12-10T04:53:10.923Z,1.48
2022-12-10T04:57:12.995Z,1.50
2022-12-10T05:01:15.303Z,1.49
2022-12-10T05:05:17.446Z,1.40
2022-12-10T05:09:19.562Z,1.31
2022-12-10T05:13:21.780Z,1.34
2022-12-10T05:17:23.817Z,1.34
2022-12-10T05:21:46.439Z,1.37
2022-12-10T05:25:54.083Z,1.44
2022-12-10T05:29:56.143Z,1.48
2022-12-10T05:33:59.017Z,1.51
2022-12-10T05:38:01.124Z,1.55
2022-12-10T05:42:03.268Z,1.47
2022-12-10T05:46:07.784Z,1.37
2022-12-10T05:50:10.156Z,1.36
2022-12-10T05:54:12.535Z,1.32
2022-12-10T05:58:15.077Z,1.36
2022-12-10T06:02:17.139Z,1.32
2022-12-10T06:06:30.286Z,1.31
2022-12-10T06:10:35.824Z,1.32
2022-12-10T06:14:37.828Z,1.34
2022-12-10T06:18:40.729Z,1.35
2022-12-10T06:22:42.753Z,1.36
2022-12-10T06:26:44.762Z,1.31
2022-12-10T06:30:46.831Z,1.27
2022-12-10T06:34:48.854Z,1.23
2022-12-10T06:38:51.076Z,1.16
2022-12-10T06:42:53.489Z,1.14
2022-12-10T06:46:55.525Z,1.09
2022-12-10T06:50:57.574Z,1.02
2022-12-10T06:54:59.642Z,1.03
2022-12-10T06:59:05.492Z,1.02
2022-12-10T07:03:07.498Z,1.00
2022-12-10T07:07:09.944Z,0.96
2022-12-10T07:11:14.659Z,0.91
2022-12-10T07:15:16.868Z,0.88
2022-12-10T07:19:19.024Z,0.89
2022-12-10T07:23:21.571Z,0.93
2022-12-10T07:27:23.582Z,0.92
2022-12-10T07:31:26.542Z,0.93
2022-12-10T07:35:28.700Z,0.93
2022-12-10T07:39:30.786Z,0.95
2022-12-10T07:43:37.687Z,0.98
2022-12-10T07:47:42.845Z,0.92
2022-12-10T07:51:49.753Z,0.95
2022-12-10T07:55:51.798Z,0.98
2022-12-10T07:59:53.763Z,1.06
2022-12-10T08:03:59.931Z,1.17
2022-12-10T08:08:06.625Z,1.24
2022-12-10T08:12:09.825Z,1.28
2022-12-10T08:16:20.442Z,1.22
2022-12-10T08:20:23.549Z,1.21
2022-12-10T08:24:25.607Z,1.25
2022-12-10T08:28:27.583Z,1.29
2022-12-10T08:32:29.533Z,1.32
2022-12-10T08:36:31.682Z,1.34
2022-12-10T08:40:33.884Z,2.00
2022-12-10T08:44:36.529Z,2.19
2022-12-10T08:48:39.263Z,1.99
2022-12-10T08:52:41.362Z,1.90
2022-12-10T08:56:43.365Z,1.84
2022-12-10T09:00:45.892Z,1.77
2022-12-10T09:04:50.273Z,1.70
2022-12-10T09:08:52.713Z,1.69
2022-12-10T09:12:59.901Z,1.65
2022-12-10T09:17:05.678Z,1.57
2022-12-10T09:21:17.265Z,1.54
2022-12-10T09:25:22.194Z,1.58
2022-12-10T09:29:24.231Z,1.64
2022-12-10T09:33:27.509Z,1.55
2022-12-10T09:37:29.543Z,1.52
2022-12-10T09:41:44.563Z,1.51
2022-12-10T09:46:28.075Z,1.61
2022-12-10T09:50:47.335Z,1.68
2022-12-10T09:54:59.913Z,1.77
2022-12-10T09:59:17.797Z,1.83
2022-12-10T10:03:19.798Z,1.84
2022-12-10T10:07:25.404Z,1.90
2022-12-10T10:11:33.478Z,1.84
2022-12-10T10:15:39.110Z,1.89
2022-12-10T10:19:42.201Z,1.98
2022-12-10T10:23:45.937Z,1.83
2022-12-10T10:27:48.005Z,1.77
2022-12-10T10:32:14.480Z,1.81
2022-12-10T10:36:16.488Z,1.91
2022-12-10T10:40:40.266Z,1.96
2022-12-10T10:44:42.810Z,1.83
2022-12-10T10:48:45.199Z,1.86
2022-12-10T10:52:47.200Z,2.05
2022-12-10T10:56:49.331Z,2.10
2022-12-10T11:00:59.256Z,2.20
2022-12-10T11:05:07.780Z,2.23
2022-12-10T11:09:20.849Z,2.24
2022-12-10T11:13:28.074Z,2.29
2022-12-10T11:17:30.165Z,2.37
2022-12-10T11:21:34.169Z,2.55
2022-12-10T11:26:04.321Z,2.62
2022-12-10T11:30:12.192Z,2.73
2022-12-10T11:34:45.487Z,2.74
2022-12-10T11:39:29.739Z,2.61
2022-12-10T11:43:39.603Z,2.61
2022-12-10T11:48:05.852Z,2.65
2022-12-10T11:52:27.039Z,2.73
2022-12-10T11:56:35.838Z,2.83
2022-12-10T12:01:02.956Z,2.86
2022-12-10T12:05:35.447Z,2.75
2022-12-10T12:09:54.363Z,2.64
2022-12-10T12:14:13.231Z,2.66
2022-12-10T12:18:28.829Z,2.69
2022-12-10T12:22:37.161Z,2.73
2022-12-10T12:26:47.129Z,2.80
2022-12-10T12:30:58.511Z,2.83
2022-12-10T12:35:02.848Z,2.66
2022-12-10T12:39:35.049Z,2.68
2022-12-10T12:43:37.021Z,2.69
2022-12-10T12:48:01.207Z,2.65
2022-12-10T12:52:21.367Z,2.54
2022-12-10T12:56:53.696Z,2.49
2022-12-10T13:01:01.768Z,2.51
2022-12-10T13:05:04.606Z,2.46
2022-12-10T13:09:12.756Z,2.34
2022-12-10T13:13:25.450Z,2.17
2022-12-10T13:17:36.587Z,2.05
2022-12-10T13:21:56.948Z,2.13
2022-12-10T13:26:00.636Z,2.09
2022-12-10T13:30:27.038Z,2.01
2022-12-10T13:34:37.941Z,2.10
2022-12-10T13:38:56.992Z,2.19
2022-12-10T13:43:56.373Z,2.05
2022-12-10T13:48:10.853Z,1.96
2022-12-10T13:52:26.081Z,1.95
2022-12-10T13:56:36.667Z,1.89
2022-12-10T14:01:16.883Z,1.81
2022-12-10T14:05:41.281Z,1.66
2022-12-10T14:09:50.889Z,1.70
2022-12-10T14:13:58.843Z,1.83
2022-12-10T14:18:02.581Z,1.86
2022-12-10T14:22:07.777Z,1.89
2022-12-10T14:26:16.782Z,1.88
2022-12-10T14:30:27.532Z,1.81
2022-12-10T14:34:30.246Z,1.71
2022-12-10T14:38:35.217Z,1.60
2022-12-10T14:42:40.490Z,1.56
2022-12-10T14:46:43.328Z,1.57
2022-12-10T14:50:46.860Z,1.61
2022-12-10T14:54:49.466Z,1.47
2022-12-10T14:59:02.707Z,1.37
2022-12-10T15:03:11.054Z,1.29
2022-12-10T15:07:21.604Z,1.28
2022-12-10T15:11:26.118Z,1.39
2022-12-10T15:15:40.383Z,1.49
2022-12-10T15:19:42.422Z,1.55
2022-12-10T15:23:46.274Z,1.56
2022-12-10T15:27:58.525Z,1.53
2022-12-10T15:32:06.165Z,1.52
2022-12-10T15:36:18.732Z,1.60
2022-12-10T15:40:28.725Z,1.67
2022-12-10T15:44:30.750Z,1.69
2022-12-10T15:48:32.868Z,1.73
2022-12-10T15:52:35.662Z,1.75
2022-12-10T15:56:37.628Z,1.67
2022-12-10T16:00:44.529Z,1.61
2022-12-10T16:04:46.796Z,1.54
2022-12-10T16:08:48.804Z,1.40
2022-12-10T16:13:01.731Z,1.24
2022-12-10T16:17:03.783Z,1.19
2022-12-10T16:21:07.714Z,1.15
2022-12-10T16:25:09.853Z,1.07
2022-12-10T16:29:11.860Z,1.07
2022-12-10T16:33:14.190Z,1.09
2022-12-10T16:37:16.185Z,1.07
2022-12-10T16:41:22.715Z,1.04
2022-12-10T16:45:28.106Z,1.02
2022-12-10T16:49:30.095Z,1.05
2022-12-10T16:53:36.821Z,1.05
2022-12-10T16:57:41.191Z,1.07
2022-12-10T17:01:43.258Z,1.08
2022-12-10T17:05:46.365Z,1.13
2022-12-10T17:09:48.433Z,1.13
2022-12-10T17:13:51.451Z,1.18
2022-12-10T17:17:53.530Z,1.20
2022-12-10T17:21:55.684Z,1.15
2022-12-10T17:25:58.325Z,1.07
2022-12-10T17:30:00.428Z,1.05
2022-12-10T17:34:02.463Z,1.01
2022-12-10T17:38:04.507Z,1.01
2022-12-10T17:42:08.385Z,0.99
2022-12-10T17:46:12.752Z,0.95
2022-12-10T17:50:36.083Z,0.92
2022-12-10T17:54:38.132Z,0.91
2022-12-10T17:58:40.590Z,0.90
2022-12-10T18:02:42.744Z,0.76
2022-12-10T18:06:45.368Z,0.64
2022-12-10T18:10:47.354Z,0.47
2022-12-10T18:14:49.445Z,0.43
2022-12-10T18:18:51.636Z,0.50
2022-12-10T18:22:54.206Z,0.56
2022-12-10T18:26:57.834Z,0.53
2022-12-10T18:31:02.747Z,0.50
2022-12-10T18:35:05.631Z,0.45
2022-12-10T18:39:18.197Z,0.32
2022-12-10T18:43:20.203Z,0.24
2022-12-10T18:47:22.575Z,0.14
2022-12-10T18:51:25.155Z,0.12
2022-12-10T18:55:27.214Z,0.11
2022-12-10T18:59:29.678Z,0.03
2022-12-10T19:03:31.697Z,0.05
2022-12-10T19:07:34.151Z,0.11
2022-12-10T19:11:36.357Z,0.23
2022-12-10T19:15:42.664Z,0.29
2022-12-10T19:19:45.314Z,0.28
2022-12-10T19:23:47.562Z,0.34
2022-12-10T19:27:49.673Z,0.26
2022-12-10T19:31:52.493Z,0.19
2022-12-10T19:35:54.475Z,0.17
2022-12-10T19:39:56.465Z,0.00
2022-12-10T19:43:58.453Z,-0.08
2022-12-10T19:48:00.981Z,0.11
2022-12-10T19:52:03.168Z,0.09
2022-12-10T19:56:32.544Z,-0.13
2022-12-10T20:00:34.800Z,-0.09
2022-12-10T20:04:36.821Z,-0.06
2022-12-10T20:08:38.909Z,-0.06
2022-12-10T20:12:40.897Z,-0.08
2022-12-10T20:16:43.396Z,-0.04
2022-12-10T20:20:45.364Z,-0.06
2022-12-10T20:24:47.742Z,-0.04
2022-12-10T20:28:50.627Z,-0.01
2022-12-10T20:32:52.704Z,-0.06
2022-12-10T20:36:54.826Z,-0.18
2022-12-10T20:40:57.202Z,-0.15
2022-12-10T20:44:59.271Z,-0.07
2022-12-10T20:49:01.378Z,-0.11
2022-12-10T20:53:03.662Z,-0.17
2022-12-10T20:57:05.866Z,-0.26
2022-12-10T21:01:08.117Z,-0.42
2022-12-10T21:05:10.552Z,-0.37
2022-12-10T21:09:13.727Z,-0.27
2022-12-10T21:13:15.788Z,-0.20
2022-12-10T21:17:17.932Z,-0.23
2022-12-10T21:21:21.955Z,-0.29
2022-12-10T21:25:24.155Z,-0.30
2022-12-10T21:29:26.251Z,-0.22
2022-12-10T21:33:28.406Z,-0.10
2022-12-10T21:37:30.431Z,-0.05
2022-12-10T21:41:50.780Z,-0.04
2022-12-10T21:45:55.350Z,-0.02
2022-12-10T21:49:57.435Z,0.16
2022-12-10T21:53:59.938Z,0.17
2022-12-10T21:58:03.019Z,0.16
2022-12-10T22:02:05.150Z,0.07
2022-12-10T22:06:08.612Z,0.04
2022-12-10T22:10:12.879Z,0.07
2022-12-10T22:14:14.992Z,0.00
2022-12-10T22:18:17.287Z,-0.11
2022-12-10T22:22:19.670Z,-0.32
2022-12-10T22:26:22.833Z,-0.39
2022-12-10T22:30:25.251Z,-0.41
2022-12-10T22:34:27.692Z,-0.38
2022-12-10T22:38:29.956Z,-0.36
2022-12-10T22:42:38.255Z,-0.37
2022-12-10T22:46:40.292Z,-0.42
2022-12-10T22:50:42.324Z,-0.56
2022-12-10T22:54:44.408Z,-0.78
2022-12-10T22:58:46.495Z,-0.86
2022-12-10T23:02:50.297Z,-1.01
2022-12-10T23:06:52.331Z,-1.08
2022-12-10T23:10:54.355Z,-1.11
2022-12-10T23:14:59.544Z,-1.16
2022-12-10T23:19:01.545Z,-1.13
2022-12-10T23:23:03.800Z,-1.10
2022-12-10T23:27:05.973Z,-1.10
2022-12-10T23:31:08.531Z,-1.08
2022-12-10T23:35:11.393Z,-1.09
2022-12-10T23:39:13.571Z,-1.10
2022-12-10T23:43:15.596Z,-1.10
2022-12-10T23:47:18.424Z,-1.08
2022-12-10T23:51:20.785Z,-1.05
2022-12-10T23:55:22.840Z,-1.01
2022-12-10T23:59:24.900Z,-0.96
